sensor_id;sensor_type;location;lat;lon;timestamp;P1;durP1;ratioP1;P2;durP2;ratioP2
30062;SDS011;16889;67.864;24.990;2024-03-25T00:03:00;10.68;;;3.40;;
30062;SDS011;16889;67.864;24.990;2024-03-25T00:07:46;6.45;;;2.83;;
30062;SDS011;16889;67.864;24.990;2024-03-25T00:12:32;5.63;;;2.75;;
30062;SDS011;16889;67.864;24.990;2024-03-25T00:17:18;7.63;;;3.03;;
30062;SDS011;16889;67.864;24.990;2024-03-25T00:22:07;7.93;;;3.00;;
30062;SDS011;16889;67.864;24.990;2024-03-25T00:26:53;8.75;;;2.95;;
30062;SDS011;16889;67.864;24.990;2024-03-25T00:31:39;11.88;;;2.85;;
30062;SDS011;16889;67.864;24.990;2024-03-25T00:36:25;9.07;;;2.95;;
30062;SDS011;16889;67.864;24.990;2024-03-25T00:41:11;7.35;;;2.80;;
30062;SDS011;16889;67.864;24.990;2024-03-25T00:45:56;12.00;;;2.90;;
30062;SDS011;16889;67.864;24.990;2024-03-25T00:50:42;5.28;;;2.25;;
30062;SDS011;16889;67.864;24.990;2024-03-25T00:55:28;6.05;;;2.22;;
30062;SDS011;16889;67.864;24.990;2024-03-25T01:00:15;11.10;;;2.55;;
30062;SDS011;16889;67.864;24.990;2024-03-25T01:05:01;7.20;;;2.63;;
30062;SDS011;16889;67.864;24.990;2024-03-25T01:09:47;6.38;;;2.47;;
30062;SDS011;16889;67.864;24.990;2024-03-25T01:14:33;7.18;;;3.00;;
30062;SDS011;16889;67.864;24.990;2024-03-25T01:19:19;7.35;;;2.50;;
30062;SDS011;16889;67.864;24.990;2024-03-25T01:24:06;4.97;;;2.47;;
30062;SDS011;16889;67.864;24.990;2024-03-25T01:28:52;12.13;;;3.00;;
30062;SDS011;16889;67.864;24.990;2024-03-25T01:33:38;8.65;;;2.40;;
30062;SDS011;16889;67.864;24.990;2024-03-25T01:38:24;10.40;;;2.30;;
30062;SDS011;16889;67.864;24.990;2024-03-25T01:43:10;10.50;;;2.53;;
30062;SDS011;16889;67.864;24.990;2024-03-25T01:47:56;6.03;;;2.75;;
30062;SDS011;16889;67.864;24.990;2024-03-25T01:52:44;6.80;;;2.28;;
30062;SDS011;16889;67.864;24.990;2024-03-25T01:57:30;7.70;;;2.50;;
30062;SDS011;16889;67.864;24.990;2024-03-25T02:02:16;5.60;;;2.80;;
30062;SDS011;16889;67.864;24.990;2024-03-25T02:07:03;6.90;;;2.50;;
30062;SDS011;16889;67.864;24.990;2024-03-25T02:11:51;4.82;;;2.40;;
30062;SDS011;16889;67.864;24.990;2024-03-25T02:16:38;8.38;;;2.28;;
30062;SDS011;16889;67.864;24.990;2024-03-25T02:21:23;9.52;;;2.83;;
30062;SDS011;16889;67.864;24.990;2024-03-25T02:26:09;6.88;;;2.50;;
30062;SDS011;16889;67.864;24.990;2024-03-25T02:30:55;5.47;;;2.40;;
30062;SDS011;16889;67.864;24.990;2024-03-25T02:35:42;5.30;;;2.33;;
30062;SDS011;16889;67.864;24.990;2024-03-25T02:40:30;7.82;;;2.10;;
30062;SDS011;16889;67.864;24.990;2024-03-25T02:45:16;6.95;;;2.33;;
30062;SDS011;16889;67.864;24.990;2024-03-25T02:50:02;6.25;;;3.03;;
30062;SDS011;16889;67.864;24.990;2024-03-25T02:54:49;5.13;;;2.15;;
30062;SDS011;16889;67.864;24.990;2024-03-25T02:59:34;26.80;;;3.05;;
30062;SDS011;16889;67.864;24.990;2024-03-25T03:04:20;7.68;;;3.10;;
30062;SDS011;16889;67.864;24.990;2024-03-25T03:09:06;6.15;;;2.63;;
30062;SDS011;16889;67.864;24.990;2024-03-25T03:13:52;13.43;;;2.60;;
30062;SDS011;16889;67.864;24.990;2024-03-25T03:18:39;6.97;;;2.80;;
30062;SDS011;16889;67.864;24.990;2024-03-25T03:23:25;4.47;;;1.92;;
30062;SDS011;16889;67.864;24.990;2024-03-25T03:28:11;12.27;;;2.60;;
30062;SDS011;16889;67.864;24.990;2024-03-25T03:32:57;6.15;;;2.00;;
30062;SDS011;16889;67.864;24.990;2024-03-25T03:37:42;18.20;;;2.72;;
30062;SDS011;16889;67.864;24.990;2024-03-25T03:42:28;4.85;;;1.95;;
30062;SDS011;16889;67.864;24.990;2024-03-25T03:47:14;6.47;;;2.45;;
30062;SDS011;16889;67.864;24.990;2024-03-25T03:52:00;5.05;;;2.00;;
30062;SDS011;16889;67.864;24.990;2024-03-25T03:56:46;5.22;;;2.17;;
30062;SDS011;16889;67.864;24.990;2024-03-25T04:01:32;10.55;;;2.53;;
30062;SDS011;16889;67.864;24.990;2024-03-25T04:06:18;5.60;;;2.35;;
30062;SDS011;16889;67.864;24.990;2024-03-25T04:11:04;14.18;;;3.33;;
30062;SDS011;16889;67.864;24.990;2024-03-25T04:15:51;8.73;;;2.53;;
30062;SDS011;16889;67.864;24.990;2024-03-25T04:20:41;7.80;;;2.25;;
30062;SDS011;16889;67.864;24.990;2024-03-25T04:25:27;10.32;;;2.40;;
30062;SDS011;16889;67.864;24.990;2024-03-25T04:30:13;20.00;;;3.22;;
30062;SDS011;16889;67.864;24.990;2024-03-25T04:34:59;11.95;;;2.70;;
30062;SDS011;16889;67.864;24.990;2024-03-25T04:39:46;26.88;;;2.53;;
30062;SDS011;16889;67.864;24.990;2024-03-25T04:44:31;4.15;;;1.90;;
30062;SDS011;16889;67.864;24.990;2024-03-25T04:49:17;7.78;;;2.10;;
30062;SDS011;16889;67.864;24.990;2024-03-25T04:54:03;4.95;;;2.22;;
30062;SDS011;16889;67.864;24.990;2024-03-25T04:58:49;8.63;;;2.65;;
30062;SDS011;16889;67.864;24.990;2024-03-25T05:03:35;7.35;;;2.38;;
30062;SDS011;16889;67.864;24.990;2024-03-25T05:08:21;8.15;;;2.72;;
30062;SDS011;16889;67.864;24.990;2024-03-25T05:13:07;11.13;;;2.83;;
30062;SDS011;16889;67.864;24.990;2024-03-25T05:17:53;5.10;;;2.13;;
30062;SDS011;16889;67.864;24.990;2024-03-25T05:22:39;9.68;;;3.28;;
30062;SDS011;16889;67.864;24.990;2024-03-25T05:27:25;7.13;;;2.30;;
30062;SDS011;16889;67.864;24.990;2024-03-25T05:32:11;16.88;;;5.72;;
30062;SDS011;16889;67.864;24.990;2024-03-25T05:36:57;21.70;;;3.92;;
30062;SDS011;16889;67.864;24.990;2024-03-25T05:41:43;8.55;;;3.35;;
30062;SDS011;16889;67.864;24.990;2024-03-25T05:46:29;9.38;;;2.85;;
30062;SDS011;16889;67.864;24.990;2024-03-25T05:51:15;7.75;;;2.30;;
30062;SDS011;16889;67.864;24.990;2024-03-25T05:56:01;9.52;;;2.63;;
30062;SDS011;16889;67.864;24.990;2024-03-25T06:00:48;7.53;;;2.47;;
30062;SDS011;16889;67.864;24.990;2024-03-25T06:05:34;8.13;;;2.30;;
30062;SDS011;16889;67.864;24.990;2024-03-25T06:15:06;7.00;;;2.70;;
30062;SDS011;16889;67.864;24.990;2024-03-25T06:19:52;6.43;;;2.40;;
30062;SDS011;16889;67.864;24.990;2024-03-25T06:24:38;6.32;;;2.30;;
30062;SDS011;16889;67.864;24.990;2024-03-25T06:29:24;4.80;;;2.17;;
30062;SDS011;16889;67.864;24.990;2024-03-25T06:34:10;11.48;;;2.13;;
30062;SDS011;16889;67.864;24.990;2024-03-25T06:38:59;5.53;;;1.80;;
30062;SDS011;16889;67.864;24.990;2024-03-25T06:43:45;6.93;;;1.70;;
30062;SDS011;16889;67.864;24.990;2024-03-25T06:48:32;12.07;;;2.22;;
30062;SDS011;16889;67.864;24.990;2024-03-25T06:53:21;6.75;;;1.88;;
30062;SDS011;16889;67.864;24.990;2024-03-25T06:58:08;3.88;;;1.83;;
30062;SDS011;16889;67.864;24.990;2024-03-25T07:02:54;3.73;;;1.63;;
30062;SDS011;16889;67.864;24.990;2024-03-25T07:07:40;4.00;;;1.53;;
30062;SDS011;16889;67.864;24.990;2024-03-25T07:12:26;2.30;;;1.50;;
30062;SDS011;16889;67.864;24.990;2024-03-25T07:17:12;4.93;;;1.45;;
30062;SDS011;16889;67.864;24.990;2024-03-25T07:21:57;2.75;;;1.40;;
30062;SDS011;16889;67.864;24.990;2024-03-25T07:26:43;2.63;;;1.30;;
30062;SDS011;16889;67.864;24.990;2024-03-25T07:31:29;7.90;;;1.58;;
30062;SDS011;16889;67.864;24.990;2024-03-25T07:36:15;4.28;;;1.40;;
30062;SDS011;16889;67.864;24.990;2024-03-25T07:41:05;4.00;;;1.58;;
30062;SDS011;16889;67.864;24.990;2024-03-25T07:45:51;4.65;;;1.60;;
30062;SDS011;16889;67.864;24.990;2024-03-25T07:50:37;3.47;;;1.30;;
30062;SDS011;16889;67.864;24.990;2024-03-25T07:55:23;4.97;;;1.40;;
30062;SDS011;16889;67.864;24.990;2024-03-25T08:00:09;3.85;;;1.33;;
30062;SDS011;16889;67.864;24.990;2024-03-25T08:04:55;4.63;;;1.23;;
30062;SDS011;16889;67.864;24.990;2024-03-25T08:09:41;4.38;;;1.30;;
30062;SDS011;16889;67.864;24.990;2024-03-25T08:14:27;3.80;;;1.60;;
30062;SDS011;16889;67.864;24.990;2024-03-25T08:19:13;4.15;;;0.95;;
30062;SDS011;16889;67.864;24.990;2024-03-25T08:24:00;5.03;;;1.17;;
30062;SDS011;16889;67.864;24.990;2024-03-25T08:28:46;3.88;;;1.15;;
30062;SDS011;16889;67.864;24.990;2024-03-25T08:33:34;7.28;;;1.23;;
30062;SDS011;16889;67.864;24.990;2024-03-25T08:38:20;3.05;;;1.02;;
30062;SDS011;16889;67.864;24.990;2024-03-25T08:43:06;2.13;;;1.10;;
30062;SDS011;16889;67.864;24.990;2024-03-25T08:47:52;1.77;;;1.10;;
30062;SDS011;16889;67.864;24.990;2024-03-25T08:52:38;2.55;;;1.20;;
30062;SDS011;16889;67.864;24.990;2024-03-25T08:57:25;4.38;;;1.13;;
30062;SDS011;16889;67.864;24.990;2024-03-25T09:02:11;6.70;;;1.35;;
30062;SDS011;16889;67.864;24.990;2024-03-25T09:06:57;2.13;;;0.93;;
30062;SDS011;16889;67.864;24.990;2024-03-25T09:11:43;3.65;;;1.13;;
30062;SDS011;16889;67.864;24.990;2024-03-25T09:16:29;1.27;;;0.82;;
30062;SDS011;16889;67.864;24.990;2024-03-25T09:21:15;2.15;;;1.08;;
30062;SDS011;16889;67.864;24.990;2024-03-25T09:26:01;3.90;;;1.10;;
30062;SDS011;16889;67.864;24.990;2024-03-25T09:30:47;2.88;;;1.10;;
30062;SDS011;16889;67.864;24.990;2024-03-25T09:35:34;3.58;;;1.33;;
30062;SDS011;16889;67.864;24.990;2024-03-25T09:40:24;2.28;;;1.10;;
30062;SDS011;16889;67.864;24.990;2024-03-25T09:45:10;1.52;;;1.13;;
30062;SDS011;16889;67.864;24.990;2024-03-25T09:49:57;1.95;;;1.17;;
30062;SDS011;16889;67.864;24.990;2024-03-25T09:54:46;3.00;;;1.27;;
30062;SDS011;16889;67.864;24.990;2024-03-25T09:59:32;3.20;;;1.10;;
30062;SDS011;16889;67.864;24.990;2024-03-25T10:04:18;2.95;;;0.90;;
30062;SDS011;16889;67.864;24.990;2024-03-25T10:09:05;3.15;;;0.98;;
30062;SDS011;16889;67.864;24.990;2024-03-25T10:13:53;12.48;;;3.67;;
30062;SDS011;16889;67.864;24.990;2024-03-25T10:18:39;4.32;;;0.90;;
30062;SDS011;16889;67.864;24.990;2024-03-25T10:23:26;3.63;;;1.38;;
30062;SDS011;16889;67.864;24.990;2024-03-25T10:28:12;3.78;;;0.95;;
30062;SDS011;16889;67.864;24.990;2024-03-25T10:32:59;10.48;;;4.40;;
30062;SDS011;16889;67.864;24.990;2024-03-25T10:37:48;5.47;;;1.00;;
30062;SDS011;16889;67.864;24.990;2024-03-25T10:42:35;1.00;;;0.73;;
30062;SDS011;16889;67.864;24.990;2024-03-25T10:47:28;2.58;;;1.15;;
30062;SDS011;16889;67.864;24.990;2024-03-25T10:52:16;3.08;;;1.08;;
30062;SDS011;16889;67.864;24.990;2024-03-25T10:57:03;1.77;;;1.00;;
30062;SDS011;16889;67.864;24.990;2024-03-25T11:06:36;6.55;;;1.50;;
30062;SDS011;16889;67.864;24.990;2024-03-25T11:11:22;3.05;;;0.77;;
30062;SDS011;16889;67.864;24.990;2024-03-25T11:16:08;3.53;;;0.95;;
30062;SDS011;16889;67.864;24.990;2024-03-25T11:21:05;4.30;;;1.30;;
30062;SDS011;16889;67.864;24.990;2024-03-25T11:25:55;2.58;;;1.10;;
30062;SDS011;16889;67.864;24.990;2024-03-25T11:30:42;2.40;;;1.10;;
30062;SDS011;16889;67.864;24.990;2024-03-25T11:40:15;3.85;;;1.05;;
30062;SDS011;16889;67.864;24.990;2024-03-25T11:45:01;23.27;;;1.92;;
30062;SDS011;16889;67.864;24.990;2024-03-25T11:49:47;1.00;;;0.90;;
30062;SDS011;16889;67.864;24.990;2024-03-25T11:54:34;2.03;;;1.20;;
30062;SDS011;16889;67.864;24.990;2024-03-25T11:59:20;2.67;;;1.20;;
30062;SDS011;16889;67.864;24.990;2024-03-25T12:04:12;5.43;;;0.82;;
30062;SDS011;16889;67.864;24.990;2024-03-25T12:09:02;1.90;;;0.90;;
30062;SDS011;16889;67.864;24.990;2024-03-25T12:14:06;1.90;;;1.05;;
30062;SDS011;16889;67.864;24.990;2024-03-25T12:18:52;2.88;;;0.90;;
30062;SDS011;16889;67.864;24.990;2024-03-25T12:23:38;5.63;;;1.20;;
30062;SDS011;16889;67.864;24.990;2024-03-25T12:28:27;1.40;;;0.90;;
30062;SDS011;16889;67.864;24.990;2024-03-25T12:33:13;2.75;;;1.20;;
30062;SDS011;16889;67.864;24.990;2024-03-25T12:37:59;3.83;;;1.10;;
30062;SDS011;16889;67.864;24.990;2024-03-25T12:42:44;2.90;;;1.05;;
30062;SDS011;16889;67.864;24.990;2024-03-25T12:47:37;4.05;;;1.25;;
30062;SDS011;16889;67.864;24.990;2024-03-25T12:52:23;3.83;;;1.00;;
30062;SDS011;16889;67.864;24.990;2024-03-25T12:57:11;6.15;;;1.15;;
30062;SDS011;16889;67.864;24.990;2024-03-25T13:01:57;3.25;;;1.58;;
30062;SDS011;16889;67.864;24.990;2024-03-25T13:06:43;4.67;;;1.47;;
30062;SDS011;16889;67.864;24.990;2024-03-25T13:11:29;2.03;;;0.93;;
30062;SDS011;16889;67.864;24.990;2024-03-25T13:16:15;5.13;;;1.00;;
30062;SDS011;16889;67.864;24.990;2024-03-25T13:21:01;2.03;;;1.20;;
30062;SDS011;16889;67.864;24.990;2024-03-25T13:25:47;2.22;;;1.20;;
30062;SDS011;16889;67.864;24.990;2024-03-25T13:30:33;4.65;;;1.00;;
30062;SDS011;16889;67.864;24.990;2024-03-25T13:35:19;2.35;;;1.10;;
30062;SDS011;16889;67.864;24.990;2024-03-25T13:40:05;11.57;;;1.60;;
30062;SDS011;16889;67.864;24.990;2024-03-25T13:44:52;2.87;;;1.10;;
30062;SDS011;16889;67.864;24.990;2024-03-25T13:49:38;2.88;;;1.20;;
30062;SDS011;16889;67.864;24.990;2024-03-25T13:54:24;3.10;;;1.20;;
30062;SDS011;16889;67.864;24.990;2024-03-25T13:59:15;16.00;;;1.20;;
30062;SDS011;16889;67.864;24.990;2024-03-25T14:04:01;2.97;;;1.10;;
30062;SDS011;16889;67.864;24.990;2024-03-25T14:08:46;9.75;;;1.30;;
30062;SDS011;16889;67.864;24.990;2024-03-25T14:13:33;3.72;;;1.17;;
30062;SDS011;16889;67.864;24.990;2024-03-25T14:18:19;3.60;;;1.27;;
30062;SDS011;16889;67.864;24.990;2024-03-25T14:23:05;2.58;;;1.13;;
30062;SDS011;16889;67.864;24.990;2024-03-25T14:27:52;6.18;;;1.25;;
30062;SDS011;16889;67.864;24.990;2024-03-25T14:32:42;3.00;;;0.98;;
30062;SDS011;16889;67.864;24.990;2024-03-25T14:37:28;5.78;;;1.58;;
30062;SDS011;16889;67.864;24.990;2024-03-25T14:42:14;4.40;;;1.40;;
30062;SDS011;16889;67.864;24.990;2024-03-25T14:47:00;3.83;;;1.00;;
30062;SDS011;16889;67.864;24.990;2024-03-25T14:51:46;7.55;;;1.63;;
30062;SDS011;16889;67.864;24.990;2024-03-25T14:56:32;9.60;;;1.10;;
30062;SDS011;16889;67.864;24.990;2024-03-25T15:01:18;7.47;;;1.23;;
30062;SDS011;16889;67.864;24.990;2024-03-25T15:06:04;2.45;;;1.20;;
30062;SDS011;16889;67.864;24.990;2024-03-25T15:10:50;4.13;;;1.17;;
30062;SDS011;16889;67.864;24.990;2024-03-25T15:15:38;6.22;;;1.70;;
30062;SDS011;16889;67.864;24.990;2024-03-25T15:20:27;9.00;;;1.40;;
30062;SDS011;16889;67.864;24.990;2024-03-25T15:25:13;8.90;;;1.60;;
30062;SDS011;16889;67.864;24.990;2024-03-25T15:30:00;4.85;;;1.05;;
30062;SDS011;16889;67.864;24.990;2024-03-25T15:34:46;4.45;;;1.25;;
30062;SDS011;16889;67.864;24.990;2024-03-25T15:39:32;4.70;;;1.38;;
30062;SDS011;16889;67.864;24.990;2024-03-25T15:44:17;19.10;;;1.90;;
30062;SDS011;16889;67.864;24.990;2024-03-25T15:49:03;11.48;;;1.35;;
30062;SDS011;16889;67.864;24.990;2024-03-25T15:53:49;8.20;;;1.30;;
30062;SDS011;16889;67.864;24.990;2024-03-25T15:58:35;4.95;;;1.58;;
30062;SDS011;16889;67.864;24.990;2024-03-25T16:03:22;11.25;;;1.50;;
30062;SDS011;16889;67.864;24.990;2024-03-25T16:08:08;7.93;;;1.43;;
30062;SDS011;16889;67.864;24.990;2024-03-25T16:12:57;2.10;;;0.90;;
30062;SDS011;16889;67.864;24.990;2024-03-25T16:17:43;6.75;;;1.58;;
30062;SDS011;16889;67.864;24.990;2024-03-25T16:22:29;9.15;;;1.40;;
30062;SDS011;16889;67.864;24.990;2024-03-25T16:27:17;17.13;;;1.70;;
30062;SDS011;16889;67.864;24.990;2024-03-25T16:32:03;12.00;;;1.43;;
30062;SDS011;16889;67.864;24.990;2024-03-25T16:36:49;14.35;;;2.50;;
30062;SDS011;16889;67.864;24.990;2024-03-25T16:41:35;14.25;;;2.65;;
30062;SDS011;16889;67.864;24.990;2024-03-25T16:46:21;30.90;;;4.67;;
30062;SDS011;16889;67.864;24.990;2024-03-25T16:51:08;13.73;;;3.10;;
30062;SDS011;16889;67.864;24.990;2024-03-25T17:05:29;5.32;;;1.55;;
30062;SDS011;16889;67.864;24.990;2024-03-25T17:10:15;3.73;;;1.20;;
30062;SDS011;16889;67.864;24.990;2024-03-25T17:15:01;4.93;;;1.10;;
30062;SDS011;16889;67.864;24.990;2024-03-25T17:19:47;1.77;;;1.00;;
30062;SDS011;16889;67.864;24.990;2024-03-25T17:24:33;5.33;;;1.60;;
30062;SDS011;16889;67.864;24.990;2024-03-25T17:29:19;1.77;;;0.97;;
30062;SDS011;16889;67.864;24.990;2024-03-25T17:34:05;1.67;;;1.00;;
30062;SDS011;16889;67.864;24.990;2024-03-25T17:38:51;5.35;;;1.10;;
30062;SDS011;16889;67.864;24.990;2024-03-25T17:43:37;5.23;;;1.20;;
30062;SDS011;16889;67.864;24.990;2024-03-25T17:48:23;4.88;;;1.00;;
30062;SDS011;16889;67.864;24.990;2024-03-25T17:53:09;1.80;;;0.80;;
30062;SDS011;16889;67.864;24.990;2024-03-25T17:57:55;7.28;;;1.15;;
30062;SDS011;16889;67.864;24.990;2024-03-25T18:02:41;8.02;;;0.93;;
30062;SDS011;16889;67.864;24.990;2024-03-25T18:07:27;4.93;;;0.80;;
30062;SDS011;16889;67.864;24.990;2024-03-25T18:12:14;1.80;;;1.10;;
30062;SDS011;16889;67.864;24.990;2024-03-25T18:17:01;8.23;;;0.88;;
30062;SDS011;16889;67.864;24.990;2024-03-25T18:21:49;8.93;;;1.38;;
30062;SDS011;16889;67.864;24.990;2024-03-25T18:26:35;13.23;;;2.53;;
30062;SDS011;16889;67.864;24.990;2024-03-25T18:31:21;1.60;;;1.00;;
30062;SDS011;16889;67.864;24.990;2024-03-25T18:36:07;1.83;;;1.10;;
30062;SDS011;16889;67.864;24.990;2024-03-25T18:40:53;2.55;;;0.90;;
30062;SDS011;16889;67.864;24.990;2024-03-25T18:45:39;2.60;;;1.00;;
30062;SDS011;16889;67.864;24.990;2024-03-25T18:50:25;1.73;;;0.90;;
30062;SDS011;16889;67.864;24.990;2024-03-25T18:55:11;4.20;;;1.42;;
30062;SDS011;16889;67.864;24.990;2024-03-25T18:59:56;2.30;;;0.90;;
30062;SDS011;16889;67.864;24.990;2024-03-25T19:04:42;5.45;;;0.90;;
30062;SDS011;16889;67.864;24.990;2024-03-25T19:09:29;2.08;;;0.90;;
30062;SDS011;16889;67.864;24.990;2024-03-25T19:19:00;1.57;;;0.90;;
30062;SDS011;16889;67.864;24.990;2024-03-25T19:28:32;3.10;;;1.17;;
30062;SDS011;16889;67.864;24.990;2024-03-25T19:33:18;2.65;;;1.00;;
30062;SDS011;16889;67.864;24.990;2024-03-25T19:38:04;2.70;;;1.05;;
30062;SDS011;16889;67.864;24.990;2024-03-25T19:42:50;2.30;;;1.20;;
30062;SDS011;16889;67.864;24.990;2024-03-25T19:47:36;9.05;;;1.70;;
30062;SDS011;16889;67.864;24.990;2024-03-25T19:52:22;14.77;;;1.45;;
30062;SDS011;16889;67.864;24.990;2024-03-25T19:57:08;10.90;;;1.50;;
30062;SDS011;16889;67.864;24.990;2024-03-25T20:01:55;21.15;;;1.48;;
30062;SDS011;16889;67.864;24.990;2024-03-25T20:06:41;8.65;;;2.00;;
30062;SDS011;16889;67.864;24.990;2024-03-25T20:11:27;4.80;;;1.15;;
30062;SDS011;16889;67.864;24.990;2024-03-25T20:16:13;4.15;;;1.58;;
30062;SDS011;16889;67.864;24.990;2024-03-25T20:20:59;12.77;;;1.20;;
30062;SDS011;16889;67.864;24.990;2024-03-25T20:25:45;16.65;;;1.90;;
30062;SDS011;16889;67.864;24.990;2024-03-25T20:30:31;12.48;;;1.40;;
30062;SDS011;16889;67.864;24.990;2024-03-25T20:35:20;6.20;;;1.30;;
30062;SDS011;16889;67.864;24.990;2024-03-25T20:40:06;8.45;;;1.40;;
30062;SDS011;16889;67.864;24.990;2024-03-25T20:44:52;11.90;;;1.80;;
30062;SDS011;16889;67.864;24.990;2024-03-25T20:49:38;3.15;;;1.20;;
30062;SDS011;16889;67.864;24.990;2024-03-25T20:54:24;3.33;;;1.38;;
30062;SDS011;16889;67.864;24.990;2024-03-25T20:59:11;4.72;;;1.23;;
30062;SDS011;16889;67.864;24.990;2024-03-25T21:03:58;7.47;;;1.48;;
30062;SDS011;16889;67.864;24.990;2024-03-25T21:08:44;3.47;;;1.52;;
30062;SDS011;16889;67.864;24.990;2024-03-25T21:13:29;8.02;;;1.60;;
30062;SDS011;16889;67.864;24.990;2024-03-25T21:18:15;6.72;;;1.67;;
30062;SDS011;16889;67.864;24.990;2024-03-25T21:23:01;1.73;;;1.13;;
30062;SDS011;16889;67.864;24.990;2024-03-25T21:27:47;6.03;;;1.40;;
30062;SDS011;16889;67.864;24.990;2024-03-25T21:32:33;2.55;;;1.30;;
30062;SDS011;16889;67.864;24.990;2024-03-25T21:37:19;5.50;;;1.65;;
30062;SDS011;16889;67.864;24.990;2024-03-25T21:42:05;3.63;;;1.20;;
30062;SDS011;16889;67.864;24.990;2024-03-25T21:46:51;3.63;;;1.33;;
30062;SDS011;16889;67.864;24.990;2024-03-25T21:51:39;6.07;;;1.42;;
30062;SDS011;16889;67.864;24.990;2024-03-25T21:56:25;1.27;;;0.95;;
30062;SDS011;16889;67.864;24.990;2024-03-25T22:01:11;6.60;;;1.50;;
30062;SDS011;16889;67.864;24.990;2024-03-25T22:05:57;8.23;;;1.70;;
30062;SDS011;16889;67.864;24.990;2024-03-25T22:10:43;7.97;;;1.40;;
30062;SDS011;16889;67.864;24.990;2024-03-25T22:15:29;5.20;;;1.50;;
30062;SDS011;16889;67.864;24.990;2024-03-25T22:20:15;11.10;;;1.35;;
30062;SDS011;16889;67.864;24.990;2024-03-25T22:25:01;5.95;;;1.20;;
30062;SDS011;16889;67.864;24.990;2024-03-25T22:29:48;4.13;;;1.27;;
30062;SDS011;16889;67.864;24.990;2024-03-25T22:34:34;16.13;;;2.38;;
30062;SDS011;16889;67.864;24.990;2024-03-25T22:39:20;6.80;;;1.60;;
30062;SDS011;16889;67.864;24.990;2024-03-25T22:44:06;7.50;;;1.55;;
30062;SDS011;16889;67.864;24.990;2024-03-25T22:48:52;7.47;;;2.28;;
30062;SDS011;16889;67.864;24.990;2024-03-25T22:53:38;14.25;;;3.17;;
30062;SDS011;16889;67.864;24.990;2024-03-25T22:58:24;10.60;;;3.75;;
30062;SDS011;16889;67.864;24.990;2024-03-25T23:03:11;7.78;;;2.08;;
30062;SDS011;16889;67.864;24.990;2024-03-25T23:07:57;6.38;;;2.17;;
30062;SDS011;16889;67.864;24.990;2024-03-25T23:12:42;9.30;;;2.13;;
30062;SDS011;16889;67.864;24.990;2024-03-25T23:17:28;12.55;;;4.32;;
30062;SDS011;16889;67.864;24.990;2024-03-25T23:22:14;8.85;;;2.90;;
30062;SDS011;16889;67.864;24.990;2024-03-25T23:27:01;5.40;;;2.13;;
30062;SDS011;16889;67.864;24.990;2024-03-25T23:31:47;5.30;;;1.80;;
30062;SDS011;16889;67.864;24.990;2024-03-25T23:36:33;3.80;;;1.77;;
30062;SDS011;16889;67.864;24.990;2024-03-25T23:41:19;3.05;;;1.27;;
30062;SDS011;16889;67.864;24.990;2024-03-25T23:46:05;4.88;;;1.50;;
30062;SDS011;16889;67.864;24.990;2024-03-25T23:50:51;6.30;;;1.15;;
30062;SDS011;16889;67.864;24.990;2024-03-25T23:55:37;1.77;;;0.70;;
